Time;durP1;ratioP1;P1;durP2;ratioP2;P2;SDS_P1;SDS_P2;PMS_P1;PMS_P2;Temp;Humidity;BMP_temperature;BMP_pressure;BME280_temperature;BME280_humidity;BME280_pressure;Samples;Min_cycle;Max_cycle;Signal;HPM_P1;HPM_P2
2023/04/26 00:00:23;;;;;;;7.30;3.20;;;6.80;99.90;;;;;;5077025;28;20449;-71
2023/04/26 00:03:09;;;;;;;4.20;2.80;;;6.80;99.90;;;;;;5086807;28;20559;-71
2023/04/26 00:05:55;;;;;;;4.90;2.70;;;6.70;99.90;;;;;;5081656;28;20443;-71
2023/04/26 00:08:42;;;;;;;5.50;3.07;;;6.60;99.90;;;;;;5079654;28;20629;-71
2023/04/26 00:11:27;;;;;;;6.07;3.20;;;6.50;99.90;;;;;;5080403;28;20453;-71
2023/04/26 00:14:13;;;;;;;10.10;2.77;;;6.40;99.90;;;;;;5083126;28;20450;-71
2023/04/26 00:16:59;;;;;;;8.67;3.07;;;6.40;99.90;;;;;;5086059;28;20820;-71
2023/04/26 00:19:45;;;;;;;7.10;3.00;;;6.40;99.90;;;;;;5083400;28;20537;-71
2023/04/26 00:22:31;;;;;;;7.67;3.73;;;6.50;99.90;;;;;;5084503;28;20448;-71
2023/04/26 00:25:18;;;;;;;4.83;2.63;;;6.30;99.90;;;;;;5078227;28;20441;-74
2023/04/26 00:28:04;;;;;;;3.50;2.60;;;6.30;99.90;;;;;;5080931;28;20625;-70
2023/04/26 00:30:50;;;;;;;4.60;2.80;;;6.20;99.90;;;;;;5084245;28;20447;-70
2023/04/26 00:33:36;;;;;;;10.80;3.60;;;6.10;99.90;;;;;;5084101;28;20511;-71
2023/04/26 00:36:21;;;;;;;6.00;3.40;;;6.00;99.90;;;;;;5075948;28;20436;-71
2023/04/26 00:39:07;;;;;;;4.83;2.97;;;6.00;99.90;;;;;;5086473;28;20414;-71
2023/04/26 00:41:54;;;;;;;7.90;3.07;;;6.10;99.90;;;;;;5083350;28;20882;-73
2023/04/26 00:44:40;;;;;;;6.57;2.97;;;6.00;99.90;;;;;;5084394;28;20450;-70
2023/04/26 00:47:26;;;;;;;7.80;3.20;;;6.10;99.90;;;;;;5083852;28;20995;-71
2023/04/26 00:50:12;;;;;;;7.23;2.80;;;6.00;99.90;;;;;;5084348;28;20419;-71
2023/04/26 00:52:58;;;;;;;8.87;3.80;;;6.10;99.90;;;;;;5089644;28;20952;-72
2023/04/26 00:55:45;;;;;;;9.33;3.53;;;5.90;99.90;;;;;;5075835;28;20911;-70
2023/04/26 00:58:32;;;;;;;6.50;3.30;;;5.90;99.90;;;;;;5084257;28;20592;-71
2023/04/26 01:01:18;;;;;;;9.87;3.30;;;5.80;99.90;;;;;;5083580;28;20419;-71
2023/04/26 01:04:04;;;;;;;6.00;3.23;;;5.80;99.90;;;;;;5085903;28;20936;-70
2023/04/26 01:06:50;;;;;;;5.83;2.83;;;5.80;99.90;;;;;;5078831;28;20460;-70
2023/04/26 01:09:35;;;;;;;8.13;3.20;;;5.80;99.90;;;;;;5081366;28;20435;-70
2023/04/26 01:12:22;;;;;;;5.57;3.10;;;5.70;99.90;;;;;;5083852;28;20452;-70
2023/04/26 01:15:11;;;;;;;7.60;4.30;;;5.60;99.90;;;;;;5079184;28;20420;-71
2023/04/26 01:17:57;;;;;;;8.13;3.23;;;5.70;99.90;;;;;;5081981;28;21117;-71
2023/04/26 01:20:45;;;;;;;8.33;3.40;;;5.70;99.90;;;;;;5083707;28;20489;-71
2023/04/26 01:23:32;;;;;;;5.87;3.43;;;5.60;99.90;;;;;;5086577;28;20433;-71
2023/04/26 01:26:18;;;;;;;7.50;3.47;;;5.60;99.90;;;;;;5083930;28;20509;-70
2023/04/26 01:29:13;;;;;;;7.23;2.93;;;5.50;99.90;;;;;;5081705;28;20447;-70
2023/04/26 01:31:59;;;;;;;11.93;3.90;;;5.50;99.90;;;;;;5077859;28;20492;-71
2023/04/26 01:34:45;;;;;;;4.20;3.23;;;5.60;99.90;;;;;;5080843;28;20649;-71
2023/04/26 01:37:30;;;;;;;9.30;3.50;;;5.40;99.90;;;;;;5081180;28;20439;-70
2023/04/26 01:40:18;;;;;;;7.43;4.10;;;5.50;99.90;;;;;;5084752;28;20823;-71
2023/04/26 01:43:03;;;;;;;7.97;3.50;;;5.40;99.90;;;;;;5079905;28;20993;-71
2023/04/26 01:45:49;;;;;;;5.20;3.23;;;5.30;99.90;;;;;;5081186;28;20452;-71
2023/04/26 01:48:35;;;;;;;6.23;3.60;;;5.30;99.90;;;;;;5077483;28;20599;-71
2023/04/26 01:51:21;;;;;;;6.13;3.37;;;5.20;99.90;;;;;;5079773;28;20428;-71
2023/04/26 01:54:07;;;;;;;11.30;3.87;;;5.10;99.90;;;;;;5078553;28;20459;-71
2023/04/26 01:56:54;;;;;;;6.47;3.87;;;5.10;99.90;;;;;;5077782;28;22670;-71
2023/04/26 01:59:39;;;;;;;6.07;3.60;;;5.20;99.90;;;;;;5084993;28;20883;-72
2023/04/26 02:02:25;;;;;;;4.00;3.10;;;5.20;99.90;;;;;;5083631;28;20448;-72
2023/04/26 02:05:12;;;;;;;4.67;3.90;;;5.20;99.90;;;;;;5081183;28;20427;-71
2023/04/26 02:07:57;;;;;;;4.53;3.37;;;5.20;99.90;;;;;;5081988;28;20480;-71
2023/04/26 02:10:43;;;;;;;5.63;3.27;;;5.20;99.90;;;;;;5083472;28;20471;-70
2023/04/26 02:13:30;;;;;;;5.33;3.10;;;5.00;99.90;;;;;;5081869;28;20428;-74
2023/04/26 02:16:16;;;;;;;7.83;3.90;;;5.00;99.90;;;;;;5084872;28;20444;-74
2023/04/26 02:37:54;;;;;;;7.23;4.53;;;4.70;99.90;;;;;;5082578;28;20496;-71
2023/04/26 02:40:39;;;;;;;6.33;3.33;;;4.70;99.90;;;;;;5077279;28;20904;-71
2023/04/26 02:43:25;;;;;;;8.30;4.07;;;4.60;99.90;;;;;;5081089;28;20525;-72
2023/04/26 02:46:10;;;;;;;5.97;3.50;;;4.70;99.90;;;;;;5082507;28;20427;-71
2023/04/26 02:48:56;;;;;;;5.77;3.77;;;4.60;99.90;;;;;;5081188;28;20605;-71
2023/04/26 02:51:41;;;;;;;8.33;3.37;;;4.50;99.90;;;;;;5084288;28;20429;-71
2023/04/26 02:54:28;;;;;;;9.77;4.37;;;4.50;99.90;;;;;;5078197;28;20442;-71
2023/04/26 02:57:13;;;;;;;5.10;3.60;;;4.50;99.90;;;;;;5078024;28;20444;-71
2023/04/26 03:00:00;;;;;;;10.70;3.73;;;4.50;99.90;;;;;;5081523;28;20440;-71
2023/04/26 03:02:45;;;;;;;5.70;3.37;;;4.50;99.90;;;;;;5081187;28;20430;-70
2023/04/26 03:05:31;;;;;;;9.20;3.73;;;4.50;99.90;;;;;;5082074;28;20530;-71
2023/04/26 03:08:16;;;;;;;11.10;4.13;;;4.40;99.90;;;;;;5079404;28;20473;-71
2023/04/26 03:11:03;;;;;;;6.90;3.80;;;4.30;99.90;;;;;;5091577;28;20452;-72
2023/04/26 03:13:49;;;;;;;5.50;3.77;;;4.20;99.90;;;;;;5082731;28;20598;-71
2023/04/26 03:16:41;;;;;;;6.07;3.50;;;4.20;99.90;;;;;;5082994;28;20460;-70
2023/04/26 03:19:27;;;;;;;8.33;3.50;;;4.20;99.90;;;;;;5080886;28;20440;-71
2023/04/26 03:22:14;;;;;;;7.93;3.93;;;4.20;99.90;;;;;;5077649;28;20502;-71
2023/04/26 03:25:00;;;;;;;10.57;4.00;;;4.20;99.90;;;;;;5078560;28;20646;-70
2023/04/26 03:27:46;;;;;;;6.47;3.93;;;4.10;99.90;;;;;;5082896;28;20443;-71
2023/04/26 03:30:32;;;;;;;8.60;4.83;;;4.10;99.90;;;;;;5083761;28;21123;-71
2023/04/26 03:33:17;;;;;;;6.93;3.93;;;4.00;99.90;;;;;;5081349;28;20501;-71
2023/04/26 03:36:03;;;;;;;9.10;4.17;;;3.90;99.90;;;;;;5075707;28;20498;-71
2023/04/26 03:38:49;;;;;;;9.63;4.43;;;3.90;99.90;;;;;;5082830;28;20427;-71
2023/04/26 03:41:38;;;;;;;5.30;3.83;;;4.00;99.90;;;;;;5082754;28;21032;-72
2023/04/26 03:44:24;;;;;;;10.40;4.13;;;4.00;99.90;;;;;;5083094;28;20423;-72
2023/04/26 03:47:09;;;;;;;5.00;4.20;;;4.00;99.90;;;;;;5086573;28;20460;-71
2023/04/26 03:49:55;;;;;;;5.63;3.33;;;4.10;99.90;;;;;;5085408;28;20546;-72
2023/04/26 03:52:40;;;;;;;6.83;3.70;;;4.10;99.90;;;;;;5088775;28;20435;-74
2023/04/26 03:55:26;;;;;;;9.43;4.37;;;4.10;99.90;;;;;;5078499;28;20437;-71
2023/04/26 03:58:11;;;;;;;11.27;3.73;;;4.10;99.90;;;;;;5085846;28;20437;-72
2023/04/26 04:00:58;;;;;;;6.43;3.60;;;4.10;99.90;;;;;;5090100;28;20443;-71
2023/04/26 04:03:44;;;;;;;6.13;3.60;;;4.10;99.90;;;;;;5085016;28;20458;-71
2023/04/26 04:06:29;;;;;;;7.23;3.87;;;4.10;99.90;;;;;;5082847;28;20535;-72
2023/04/26 04:09:15;;;;;;;11.37;5.10;;;4.10;99.90;;;;;;5080060;28;20448;-71
2023/04/26 04:12:01;;;;;;;6.93;4.27;;;3.90;99.90;;;;;;5080813;28;20451;-71
2023/04/26 04:14:46;;;;;;;7.00;4.82;;;3.90;99.90;;;;;;5080193;28;20830;-72
2023/04/26 04:17:33;;;;;;;7.37;4.07;;;4.00;99.90;;;;;;5084081;28;20661;-71
2023/04/26 04:20:20;;;;;;;11.13;3.67;;;3.90;99.90;;;;;;5084358;28;20492;-70
2023/04/26 04:23:06;;;;;;;5.95;4.18;;;3.80;99.90;;;;;;5082675;28;20426;-71
2023/04/26 04:25:51;;;;;;;8.03;4.50;;;3.70;99.90;;;;;;5084472;28;20198;-72
2023/04/26 04:28:37;;;;;;;9.83;4.53;;;3.70;99.90;;;;;;5076330;28;20455;-71
2023/04/26 04:31:23;;;;;;;5.87;4.17;;;3.70;99.90;;;;;;5080776;28;20443;-72
2023/04/26 04:34:10;;;;;;;9.30;5.40;;;3.70;99.90;;;;;;5077906;28;20444;-72
2023/04/26 04:36:55;;;;;;;5.80;4.00;;;3.70;99.90;;;;;;5084240;28;20828;-70
2023/04/26 04:39:41;;;;;;;6.27;3.70;;;3.70;99.90;;;;;;5090427;28;20481;-71
2023/04/26 04:42:27;;;;;;;9.10;4.30;;;3.80;99.90;;;;;;5079468;28;20412;-74
2023/04/26 04:45:12;;;;;;;8.97;3.60;;;3.80;99.90;;;;;;5082407;28;20906;-73
2023/04/26 04:47:57;;;;;;;6.03;3.72;;;3.90;99.90;;;;;;5085105;28;20888;-71
2023/04/26 04:50:44;;;;;;;8.70;6.83;;;4.00;99.90;;;;;;5082987;28;20219;-72
2023/04/26 04:53:30;;;;;;;10.63;4.60;;;4.10;99.90;;;;;;5078945;28;20457;-71
2023/04/26 04:56:17;;;;;;;11.03;4.80;;;4.10;99.90;;;;;;5076466;28;20460;-72
2023/04/26 04:59:03;;;;;;;9.07;4.80;;;4.10;99.90;;;;;;5080274;28;20410;-71
2023/04/26 05:01:48;;;;;;;13.03;5.43;;;4.20;99.90;;;;;;5082007;28;20533;-73
2023/04/26 05:04:34;;;;;;;8.50;4.67;;;4.30;99.90;;;;;;5086568;28;20452;-71
2023/04/26 05:07:21;;;;;;;9.73;4.23;;;4.50;99.90;;;;;;5090106;22;21024;-71
2023/04/26 05:10:07;;;;;;;12.70;3.93;;;4.60;99.90;;;;;;5070931;28;20473;-70
2023/04/26 05:12:53;;;;;;;8.50;4.30;;;4.70;99.90;;;;;;5061644;28;20461;-71
2023/04/26 05:15:38;;;;;;;9.27;5.10;;;4.70;99.90;;;;;;5071783;28;20440;-71
2023/04/26 05:18:23;;;;;;;9.77;4.60;;;4.70;99.90;;;;;;5063495;28;20519;-73
2023/04/26 05:21:09;;;;;;;5.77;4.33;;;4.70;99.90;;;;;;5066902;28;21092;-74
2023/04/26 05:23:56;;;;;;;7.10;4.15;;;4.80;99.90;;;;;;5070074;28;20508;-73
2023/04/26 05:26:41;;;;;;;6.87;4.07;;;4.80;99.90;;;;;;5069852;28;20235;-73
2023/04/26 05:29:29;;;;;;;7.60;4.70;;;4.90;99.90;;;;;;5062837;28;20468;-74
2023/04/26 05:32:15;;;;;;;7.80;4.67;;;4.90;99.90;;;;;;5059271;28;20499;-73
2023/04/26 05:35:00;;;;;;;6.00;4.03;;;5.00;99.90;;;;;;5072038;28;20450;-74
2023/04/26 05:37:46;;;;;;;8.40;5.27;;;5.00;99.90;;;;;;5059063;28;20472;-73
2023/04/26 05:40:33;;;;;;;7.33;4.77;;;5.10;99.90;;;;;;5062509;28;20498;-71
2023/04/26 05:43:18;;;;;;;9.53;4.50;;;5.10;99.90;;;;;;5062003;28;20445;-73
2023/04/26 05:46:04;;;;;;;7.70;4.73;;;5.20;99.90;;;;;;5066284;28;20551;-74
2023/04/26 05:48:49;;;;;;;13.30;6.13;;;5.20;99.90;;;;;;5061179;28;20983;-74
2023/04/26 05:51:35;;;;;;;14.47;5.80;;;5.40;99.90;;;;;;5053602;28;20840;-74
2023/04/26 05:54:21;;;;;;;11.37;6.07;;;5.50;99.90;;;;;;5061571;28;20787;-74
2023/04/26 05:57:07;;;;;;;10.87;5.70;;;5.60;99.90;;;;;;5064693;28;20489;-74
2023/04/26 05:59:53;;;;;;;8.37;4.10;;;5.70;99.90;;;;;;5064649;28;20437;-74
2023/04/26 06:02:38;;;;;;;6.13;4.47;;;5.80;99.90;;;;;;5059659;28;20471;-74
2023/04/26 06:05:24;;;;;;;9.40;5.20;;;5.90;99.90;;;;;;5063573;28;20456;-74
2023/04/26 06:08:10;;;;;;;11.10;5.67;;;6.10;99.90;;;;;;5060231;28;20455;-74
2023/04/26 06:10:55;;;;;;;6.40;5.00;;;6.20;99.90;;;;;;5064284;28;20435;-74
2023/04/26 06:13:42;;;;;;;5.73;4.10;;;6.30;99.90;;;;;;5059361;28;20801;-74
2023/04/26 06:16:27;;;;;;;11.97;4.87;;;6.40;99.90;;;;;;5062065;28;20926;-74
2023/04/26 06:19:13;;;;;;;7.50;4.13;;;6.50;99.90;;;;;;5060012;28;20416;-74
2023/04/26 06:21:58;;;;;;;8.00;4.00;;;6.60;99.90;;;;;;5061577;28;20436;-74
2023/04/26 06:24:43;;;;;;;6.70;4.47;;;6.70;99.90;;;;;;5064239;28;20848;-74
2023/04/26 06:27:29;;;;;;;7.73;4.60;;;6.90;99.90;;;;;;5055026;28;20579;-73
2023/04/26 06:30:16;;;;;;;8.20;4.40;;;6.90;99.90;;;;;;5058112;28;20452;-73
2023/04/26 06:33:02;;;;;;;11.20;4.87;;;7.00;99.90;;;;;;5062002;28;20547;-74
2023/04/26 06:35:47;;;;;;;6.80;5.13;;;7.10;99.90;;;;;;5063071;28;20456;-74
2023/04/26 06:38:32;;;;;;;8.40;4.70;;;7.20;99.90;;;;;;5056959;28;20569;-74
2023/04/26 06:41:18;;;;;;;13.83;5.20;;;7.20;99.90;;;;;;5062214;28;20427;-74
2023/04/26 06:44:03;;;;;;;11.43;4.97;;;7.40;99.90;;;;;;5060278;28;20532;-71
2023/04/26 06:46:53;;;;;;;7.83;4.60;;;7.40;99.90;;;;;;5069322;28;20983;-71
2023/04/26 06:49:39;;;;;;;9.60;5.10;;;7.50;99.90;;;;;;5065866;28;20442;-71
2023/04/26 06:52:25;;;;;;;6.67;4.13;;;7.50;99.90;;;;;;5063937;28;20525;-74
2023/04/26 06:55:10;;;;;;;11.13;5.50;;;7.60;99.90;;;;;;5067590;28;20414;-71
2023/04/26 06:57:56;;;;;;;10.33;5.67;;;7.70;99.90;;;;;;5078779;28;20518;-71
2023/04/26 07:00:42;;;;;;;7.73;5.43;;;7.80;99.90;;;;;;5069024;28;20780;-71
2023/04/26 07:03:29;;;;;;;12.13;5.37;;;7.90;99.90;;;;;;5063205;28;20567;-71
2023/04/26 07:06:15;;;;;;;6.20;4.60;;;8.10;99.90;;;;;;5066690;28;20921;-71
2023/04/26 07:09:01;;;;;;;8.93;4.13;;;8.20;99.90;;;;;;5078187;28;20788;-71
2023/04/26 07:11:47;;;;;;;6.93;4.50;;;8.30;99.90;;;;;;5071021;28;20515;-71
2023/04/26 07:14:32;;;;;;;9.10;4.23;;;8.30;99.90;;;;;;5073138;28;20523;-71
2023/04/26 07:17:18;;;;;;;11.53;5.33;;;8.40;99.90;;;;;;5060190;28;20445;-71
2023/04/26 07:20:07;;;;;;;12.43;5.50;;;8.60;99.90;;;;;;5067916;28;20928;-71
2023/04/26 07:22:52;;;;;;;7.37;5.07;;;8.80;99.90;;;;;;5068976;28;20603;-71
2023/04/26 07:25:37;;;;;;;7.47;4.70;;;8.90;96.70;;;;;;5069629;28;20419;-71
2023/04/26 07:28:23;;;;;;;9.30;4.10;;;9.00;94.80;;;;;;5068311;28;20464;-71
2023/04/26 07:31:09;;;;;;;10.30;4.53;;;9.10;92.50;;;;;;5063691;28;20444;-71
2023/04/26 07:33:55;;;;;;;18.17;5.00;;;9.20;91.60;;;;;;5065812;28;21083;-71
2023/04/26 07:36:41;;;;;;;7.23;4.40;;;9.30;89.80;;;;;;5065187;28;20540;-71
2023/04/26 07:39:27;;;;;;;13.33;4.83;;;9.30;84.60;;;;;;5064912;28;21058;-71
2023/04/26 07:42:12;;;;;;;14.93;4.90;;;9.40;85.30;;;;;;5068879;28;20955;-71
2023/04/26 07:44:58;;;;;;;10.00;5.70;;;9.50;78.40;;;;;;5066956;28;20440;-71
2023/04/26 07:47:44;;;;;;;10.40;5.53;;;9.40;74.60;;;;;;5069317;28;20514;-71
2023/04/26 07:50:29;;;;;;;9.70;5.33;;;9.40;74.10;;;;;;5065015;28;20573;-71
2023/04/26 07:53:16;;;;;;;14.80;5.50;;;9.40;73.40;;;;;;5064047;28;20460;-71
2023/04/26 07:56:05;;;;;;;12.60;5.23;;;9.50;78.00;;;;;;5062894;28;20436;-71
2023/04/26 07:58:50;;;;;;;10.37;4.90;;;9.60;80.30;;;;;;5064609;28;20582;-71
2023/04/26 08:01:36;;;;;;;9.33;3.97;;;9.70;74.10;;;;;;5063866;28;20942;-71
2023/04/26 08:04:31;;;;;;;11.50;4.20;;;9.80;79.30;;;;;;5061295;28;20490;-70
2023/04/26 08:07:16;;;;;;;8.10;3.87;;;10.00;75.80;;;;;;5067353;28;20447;-71
2023/04/26 08:10:03;;;;;;;20.27;5.10;;;10.20;73.50;;;;;;5066636;28;20443;-71
2023/04/26 08:12:49;;;;;;;10.40;4.53;;;10.30;72.10;;;;;;5070448;28;20850;-71
2023/04/26 08:15:34;;;;;;;11.73;4.50;;;10.30;67.60;;;;;;5063839;28;20460;-71
2023/04/26 08:18:19;;;;;;;13.50;4.10;;;10.40;57.90;;;;;;5059858;28;20539;-71
2023/04/26 08:21:05;;;;;;;8.83;4.03;;;10.40;54.70;;;;;;5057708;28;20861;-71
2023/04/26 08:23:51;;;;;;;8.23;3.60;;;10.50;54.00;;;;;;5065354;28;20448;-71
2023/04/26 08:26:37;;;;;;;7.57;4.93;;;10.60;54.90;;;;;;5055337;28;20443;-71
2023/04/26 08:29:23;;;;;;;11.80;4.20;;;10.80;56.70;;;;;;5067282;28;20622;-71
2023/04/26 08:32:08;;;;;;;5.80;3.70;;;10.80;50.20;;;;;;5062773;28;20443;-71
2023/04/26 08:34:54;;;;;;;7.07;3.60;;;10.90;54.90;;;;;;5063043;28;20456;-71
2023/04/26 08:37:39;;;;;;;10.43;3.03;;;11.10;48.90;;;;;;5057946;28;20456;-71
2023/04/26 08:40:25;;;;;;;9.57;3.03;;;11.10;44.80;;;;;;5058663;28;20448;-71
2023/04/26 08:43:15;;;;;;;6.13;3.10;;;11.20;48.80;;;;;;5055943;28;20522;-71
2023/04/26 08:46:01;;;;;;;10.57;3.97;;;11.40;48.90;;;;;;5057442;28;20459;-71
2023/04/26 08:48:56;;;;;;;9.60;2.90;;;11.40;45.20;;;;;;5062548;28;20802;-71
2023/04/26 08:51:44;;;;;;;9.50;3.47;;;11.30;40.90;;;;;;5055463;28;20438;-71
2023/04/26 08:54:31;;;;;;;6.33;2.57;;;11.40;41.60;;;;;;5062955;28;20411;-71
2023/04/26 08:57:17;;;;;;;8.23;2.93;;;11.40;39.70;;;;;;5067610;28;20468;-71
2023/04/26 09:00:08;;;;;;;7.53;3.40;;;11.50;33.50;;;;;;5059521;28;20983;-71
2023/04/26 09:02:54;;;;;;;6.90;3.10;;;11.40;35.50;;;;;;5061118;28;20962;-71
2023/04/26 09:05:42;;;;;;;8.30;3.70;;;11.50;39.90;;;;;;5057380;28;20508;-71
2023/04/26 09:08:28;;;;;;;9.80;2.10;;;11.70;38.40;;;;;;5062605;28;20457;-70
2023/04/26 09:11:14;;;;;;;5.57;3.50;;;11.90;33.00;;;;;;5056455;28;20524;-71
2023/04/26 09:14:00;;;;;;;5.20;3.03;;;11.80;31.60;;;;;;5064368;28;20782;-71
2023/04/26 09:16:46;;;;;;;10.83;3.37;;;11.70;35.30;;;;;;5061543;28;20439;-70
2023/04/26 09:19:36;;;;;;;6.77;2.90;;;11.80;33.00;;;;;;5055769;28;20830;-71
2023/04/26 09:22:30;;;;;;;6.73;2.93;;;11.90;31.00;;;;;;5056471;28;20443;-71
2023/04/26 09:25:17;;;;;;;5.20;2.87;;;11.90;28.60;;;;;;5066173;28;20819;-71
2023/04/26 09:28:03;;;;;;;5.30;3.30;;;11.90;26.80;;;;;;5062627;28;20473;-71
2023/04/26 09:30:49;;;;;;;10.77;3.37;;;11.80;30.80;;;;;;5076501;28;20526;-71
2023/04/26 09:33:36;;;;;;;10.03;3.40;;;11.80;26.30;;;;;;5067933;28;20442;-71
2023/04/26 09:36:22;;;;;;;9.87;3.27;;;11.80;26.80;;;;;;5063587;28;20431;-71
2023/04/26 09:39:07;;;;;;;11.53;3.13;;;11.70;27.50;;;;;;5058629;28;20445;-71
2023/04/26 09:41:53;;;;;;;8.67;3.63;;;11.70;26.80;;;;;;5060625;28;20442;-71
2023/04/26 09:44:38;;;;;;;14.93;3.93;;;11.80;27.80;;;;;;5062807;28;20439;-72
2023/04/26 09:47:24;;;;;;;10.20;3.40;;;11.90;26.90;;;;;;5059725;28;20465;-72
2023/04/26 09:50:11;;;;;;;12.43;3.77;;;12.00;27.80;;;;;;5057838;28;20979;-71
2023/04/26 09:52:57;;;;;;;5.67;3.20;;;12.20;27.00;;;;;;5068415;28;20459;-71
2023/04/26 09:55:42;;;;;;;8.80;3.50;;;12.40;25.70;;;;;;5069898;28;21037;-71
2023/04/26 09:58:28;;;;;;;7.60;3.17;;;12.30;25.70;;;;;;5060489;28;20564;-71
2023/04/26 10:01:16;;;;;;;6.90;2.50;;;12.30;24.10;;;;;;5055188;28;20441;-71
2023/04/26 10:04:03;;;;;;;7.57;3.10;;;12.40;22.70;;;;;;5063002;28;20437;-71
2023/04/26 10:06:50;;;;;;;8.47;2.80;;;12.40;26.40;;;;;;5055820;28;20590;-71
2023/04/26 10:09:36;;;;;;;14.90;2.87;;;12.40;21.20;;;;;;5062381;28;20746;-71
2023/04/26 10:12:21;;;;;;;9.70;2.90;;;12.30;20.10;;;;;;5058080;28;20496;-71
2023/04/26 10:15:09;;;;;;;9.77;2.83;;;12.10;21.20;;;;;;5060880;28;20411;-71
2023/04/26 10:17:54;;;;;;;9.90;3.00;;;12.20;21.40;;;;;;5054780;28;20991;-71
2023/04/26 10:20:43;;;;;;;12.80;3.10;;;12.30;20.10;;;;;;5059369;28;20532;-71
2023/04/26 10:23:32;;;;;;;8.07;3.00;;;12.50;24.30;;;;;;5061413;28;20660;-71
2023/04/26 10:26:50;;;;;;;8.00;2.90;;;12.60;20.80;;;;;;5059275;28;20494;-71
2023/04/26 10:30:08;;;;;;;5.93;2.40;;;12.70;20.50;;;;;;5059580;28;20474;-71
2023/04/26 10:33:20;;;;;;;10.63;2.90;;;12.90;18.30;;;;;;5063230;28;20428;-71
2023/04/26 10:36:11;;;;;;;6.43;2.80;;;12.70;17.90;;;;;;5055358;28;20424;-71
2023/04/26 10:39:20;;;;;;;9.47;3.10;;;12.60;19.40;;;;;;5063000;28;20615;-71
2023/04/26 10:42:24;;;;;;;8.27;3.17;;;12.50;20.20;;;;;;5056970;28;20789;-71
2023/04/26 10:45:27;;;;;;;5.87;3.00;;;12.30;21.40;;;;;;5065091;28;20980;-71
2023/04/26 10:48:16;;;;;;;6.27;3.00;;;12.30;20.70;;;;;;5062293;28;20963;-71
2023/04/26 10:51:11;;;;;;;6.03;2.77;;;12.30;22.20;;;;;;5063859;28;20465;-71
2023/04/26 10:54:01;;;;;;;3.93;2.70;;;12.40;24.50;;;;;;5065904;28;20454;-71
2023/04/26 10:56:54;;;;;;;5.43;3.80;;;12.50;22.90;;;;;;5061870;28;20472;-72
2023/04/26 10:59:39;;;;;;;5.53;3.50;;;12.40;23.00;;;;;;5059319;28;20454;-71
2023/04/26 11:02:46;;;;;;;9.40;4.30;;;12.40;25.50;;;;;;5064747;28;20997;-71
2023/04/26 11:05:41;;;;;;;6.90;3.67;;;12.30;25.90;;;;;;5061968;28;20424;-71
2023/04/26 11:08:28;;;;;;;7.90;3.37;;;12.30;25.10;;;;;;5072109;22;20497;-71
2023/04/26 11:11:18;;;;;;;5.87;3.47;;;12.40;26.30;;;;;;5037949;28;20518;-73
2023/04/26 11:14:06;;;;;;;9.03;3.63;;;12.20;26.10;;;;;;5043751;28;20487;-72
2023/04/26 11:16:51;;;;;;;5.80;3.33;;;12.20;25.50;;;;;;5045312;28;20485;-73
2023/04/26 11:19:37;;;;;;;5.50;3.20;;;12.10;23.20;;;;;;5037215;28;20501;-72
2023/04/26 11:22:23;;;;;;;7.40;3.13;;;12.20;23.90;;;;;;5038852;28;20432;-72
2023/04/26 11:25:09;;;;;;;6.53;3.00;;;12.30;25.90;;;;;;5044114;28;20450;-72
2023/04/26 11:27:59;;;;;;;6.20;3.00;;;12.60;26.20;;;;;;5047318;28;21069;-72
2023/04/26 11:30:46;;;;;;;12.67;3.83;;;12.80;23.60;;;;;;5047053;28;20880;-73
2023/04/26 11:33:32;;;;;;;7.57;2.93;;;12.80;24.60;;;;;;5046306;28;20421;-73
2023/04/26 11:36:18;;;;;;;12.17;3.50;;;13.10;24.80;;;;;;5047627;28;20449;-72
2023/04/26 11:39:04;;;;;;;4.47;3.40;;;13.40;22.50;;;;;;5043717;28;20459;-73
2023/04/26 11:41:50;;;;;;;6.37;3.80;;;13.30;22.00;;;;;;5045119;28;20802;-72
2023/04/26 11:44:36;;;;;;;12.07;3.90;;;13.40;22.00;;;;;;5055166;28;20428;-73
2023/04/26 11:47:24;;;;;;;16.00;3.50;;;13.60;23.70;;;;;;5053520;28;20477;-72
2023/04/26 11:50:10;;;;;;;6.17;3.73;;;13.90;21.60;;;;;;5041724;28;20417;-72
2023/04/26 11:52:59;;;;;;;10.23;3.77;;;14.20;21.60;;;;;;5038956;28;20545;-72
2023/04/26 11:55:44;;;;;;;11.20;4.70;;;14.30;20.40;;;;;;5046463;28;20458;-72
2023/04/26 11:58:30;;;;;;;6.20;2.97;;;14.20;21.20;;;;;;5044067;28;20579;-72
2023/04/26 12:01:23;;;;;;;6.40;3.10;;;14.40;21.20;;;;;;5045003;28;20513;-72
2023/04/26 12:04:10;;;;;;;6.80;3.60;;;14.30;20.00;;;;;;5048382;28;20582;-72
2023/04/26 12:06:56;;;;;;;9.30;3.40;;;14.40;21.30;;;;;;5043952;28;20460;-72
2023/04/26 12:09:42;;;;;;;9.90;3.13;;;14.60;22.90;;;;;;5038661;28;20964;-73
2023/04/26 12:12:28;;;;;;;5.20;3.00;;;14.70;22.60;;;;;;5046631;28;20441;-72
2023/04/26 12:15:14;;;;;;;7.83;3.00;;;14.90;24.60;;;;;;5040608;28;20451;-72
2023/04/26 12:18:01;;;;;;;9.67;2.40;;;15.20;21.20;;;;;;5041335;28;20463;-72
2023/04/26 12:20:47;;;;;;;7.10;3.03;;;15.50;20.50;;;;;;5037979;28;20424;-73
2023/04/26 12:23:40;;;;;;;5.80;3.00;;;15.80;19.80;;;;;;5044933;28;20559;-73
2023/04/26 12:26:42;;;;;;;13.77;2.90;;;15.90;19.60;;;;;;5041587;28;20601;-72
2023/04/26 12:29:29;;;;;;;10.30;3.30;;;15.80;15.20;;;;;;5038934;28;20635;-72
2023/04/26 12:32:14;;;;;;;7.50;2.80;;;15.50;18.20;;;;;;5043176;28;20835;-72
2023/04/26 12:35:00;;;;;;;4.90;2.60;;;15.60;19.00;;;;;;5044709;28;20506;-72
2023/04/26 12:37:48;;;;;;;7.90;2.90;;;15.50;18.10;;;;;;5049291;28;20463;-72
2023/04/26 12:40:33;;;;;;;6.00;2.80;;;15.70;18.50;;;;;;5044795;28;20606;-73
2023/04/26 12:43:22;;;;;;;4.37;2.23;;;15.90;15.40;;;;;;5049054;28;20438;-72
2023/04/26 12:46:07;;;;;;;6.43;2.60;;;16.00;14.80;;;;;;5046963;28;20423;-72
2023/04/26 12:48:53;;;;;;;4.67;2.30;;;16.00;14.50;;;;;;5045846;28;20458;-72
2023/04/26 12:51:38;;;;;;;6.60;3.03;;;16.20;15.00;;;;;;5045576;28;20465;-73
2023/04/26 12:54:25;;;;;;;4.40;2.23;;;16.40;13.10;;;;;;5042292;28;20447;-73
2023/04/26 12:57:11;;;;;;;7.17;2.30;;;16.40;14.70;;;;;;5044364;28;20841;-72
2023/04/26 12:59:57;;;;;;;6.80;2.93;;;16.60;15.50;;;;;;5042463;28;20455;-72
2023/04/26 13:02:42;;;;;;;5.60;2.60;;;16.80;15.60;;;;;;5043849;28;20951;-73
2023/04/26 13:05:28;;;;;;;11.33;2.53;;;17.10;15.40;;;;;;5044723;28;20435;-73
2023/04/26 13:08:13;;;;;;;6.53;3.00;;;17.30;14.50;;;;;;5040938;28;20456;-71
2023/04/26 13:11:00;;;;;;;5.70;2.20;;;17.30;12.70;;;;;;5043863;28;20472;-71
2023/04/26 13:13:46;;;;;;;6.07;2.27;;;17.60;12.00;;;;;;5042740;28;20445;-72
2023/04/26 13:16:32;;;;;;;4.93;2.10;;;17.30;13.80;;;;;;5048334;28;20444;-72
2023/04/26 13:19:17;;;;;;;7.33;2.40;;;17.10;12.60;;;;;;5039459;28;20487;-72
2023/04/26 13:22:06;;;;;;;4.93;3.00;;;16.70;12.20;;;;;;5044666;28;20443;-72
2023/04/26 13:24:52;;;;;;;5.27;2.60;;;16.50;13.00;;;;;;5036146;28;20563;-72
2023/04/26 13:27:38;;;;;;;6.37;3.23;;;16.50;14.80;;;;;;5044051;28;21041;-72
2023/04/26 13:30:24;;;;;;;6.77;2.70;;;16.40;13.80;;;;;;5042336;28;20619;-72
2023/04/26 13:33:10;;;;;;;11.23;2.67;;;16.60;14.50;;;;;;5048906;28;20444;-73
2023/04/26 13:35:55;;;;;;;7.40;2.40;;;16.90;15.40;;;;;;5041647;28;20421;-73
2023/04/26 13:38:41;;;;;;;4.90;2.60;;;16.60;13.00;;;;;;5040463;28;20463;-72
2023/04/26 13:41:32;;;;;;;5.63;2.73;;;16.70;15.40;;;;;;5042219;28;20575;-73
2023/04/26 13:44:19;;;;;;;7.13;2.70;;;16.70;13.90;;;;;;5045991;28;21020;-72
2023/04/26 13:47:06;;;;;;;6.70;2.70;;;16.60;12.70;;;;;;5042096;28;20446;-73
2023/04/26 13:49:51;;;;;;;5.90;2.77;;;16.40;13.80;;;;;;5040620;28;20468;-73
2023/04/26 13:52:36;;;;;;;7.17;2.70;;;16.00;14.20;;;;;;5041485;28;20552;-72
2023/04/26 13:55:22;;;;;;;5.53;2.90;;;15.80;13.10;;;;;;5047283;28;20497;-73
2023/04/26 13:58:08;;;;;;;7.20;2.80;;;15.60;13.60;;;;;;5040748;28;20790;-72
2023/04/26 14:00:54;;;;;;;7.07;2.83;;;15.30;15.60;;;;;;5039507;28;20954;-72
2023/04/26 14:03:41;;;;;;;14.47;2.60;;;15.30;14.90;;;;;;5040690;28;20507;-72
2023/04/26 14:06:27;;;;;;;5.10;2.50;;;15.30;16.20;;;;;;5034637;28;20455;-72
2023/04/26 14:09:13;;;;;;;5.87;2.87;;;15.20;16.00;;;;;;5042204;28;20450;-73
2023/04/26 14:11:58;;;;;;;10.93;3.00;;;15.10;16.30;;;;;;5043594;28;20574;-73
2023/04/26 14:14:45;;;;;;;8.80;3.33;;;15.00;17.00;;;;;;5042762;28;20438;-72
2023/04/26 14:17:32;;;;;;;6.60;2.67;;;14.90;16.60;;;;;;5033708;28;20576;-72
2023/04/26 14:20:17;;;;;;;9.30;3.40;;;14.90;17.20;;;;;;5042326;28;20555;-73
2023/04/26 14:23:02;;;;;;;5.40;3.00;;;14.80;18.80;;;;;;5041097;28;20447;-72
2023/04/26 14:25:51;;;;;;;6.30;3.00;;;14.80;18.50;;;;;;5039828;28;20447;-72
2023/04/26 14:28:36;;;;;;;9.43;2.93;;;14.80;18.10;;;;;;5040440;28;20473;-73
2023/04/26 14:31:24;;;;;;;6.50;3.13;;;14.80;18.20;;;;;;5041366;28;20524;-71
2023/04/26 14:34:12;;;;;;;8.70;3.30;;;14.80;17.40;;;;;;5039068;28;20446;-72
2023/04/26 14:37:00;;;;;;;9.67;3.10;;;14.80;18.10;;;;;;5036761;28;20464;-73
2023/04/26 14:39:45;;;;;;;6.47;2.90;;;14.60;16.70;;;;;;5037949;28;20420;-72
2023/04/26 14:42:31;;;;;;;8.93;3.30;;;14.60;16.60;;;;;;5040851;28;20442;-72
2023/04/26 14:45:17;;;;;;;5.97;3.40;;;14.50;16.60;;;;;;5046850;28;20977;-72
2023/04/26 14:48:02;;;;;;;11.93;2.93;;;14.40;19.10;;;;;;5043384;28;20461;-72
2023/04/26 14:50:49;;;;;;;8.57;3.00;;;14.40;19.00;;;;;;5034948;28;20454;-72